This is the latest recevied weather packets stored in our database for station/object IQ1LY-3. If no packets are shown the sender has not sent any weather packets the latest 10 day(s).
| Time | Temp. | Humidity | Pressure | Rain* | Wind** | Luminosity | Snow |
|---|---|---|---|---|---|---|---|
| 1777441671 | 12.22° C | 89% | 1014.6 hPa | 0 mm | - | - | - |
| 1777438636 | 10.56° C | 88% | 1014.6 hPa | 0 mm | - | - | - |
| 1777434369 | 10.56° C | 86% | 1014.6 hPa | 0 mm | - | - | - |
| 1777433768 | 10.56° C | 86% | 1014.6 hPa | 0 mm | - | - | - |
| 1777430733 | 10.56° C | 86% | 1014.9 hPa | 0 mm | - | - | - |
| 1777428298 | 11.11° C | 87% | 1014.6 hPa | 0 mm | - | - | - |
| 1777426403 | 11.11° C | 88% | 1014.6 hPa | 0 mm | - | - | - |
| 1777422766 | 11.67° C | 89% | 1014.9 hPa | 0 mm | - | - | - |
| 1777414863 | 13.33° C | 87% | 1014.6 hPa | 0 mm | - | - | - |
| 1777412998 | 13.89° C | 87% | 1014.6 hPa | 0 mm | - | - | - |
| 1777411195 | 13.89° C | 86% | 1014.6 hPa | 0 mm | - | - | - |
| 1777409931 | 14.44° C | 86% | 1014.6 hPa | 0 mm | - | - | - |
| 1777408697 | 14.44° C | 85% | 1014.6 hPa | 0 mm | - | - | - |
| 1777403857 | 15.56° C | 82% | 1014.6 hPa | 0 mm | - | - | - |
| 1777399652 | 17.78° C | 78% | 1013.9 hPa | 0 mm | - | - | - |
| 1777392919 | 19.44° C | 73% | 1013.9 hPa | 0 mm | - | - | - |
| 1777392317 | 20° C | 72% | 1013.9 hPa | 0 mm | - | - | - |
| 1777389313 | 20° C | 72% | 1014.2 hPa | 0 mm | - | - | - |
| 1777388112 | 20.56° C | 70% | 1014.2 hPa | 0 mm | - | - | - |
| 1777386909 | 20.56° C | 70% | 1014.6 hPa | 0 mm | - | - | - |
| 1777385708 | 20.56° C | 69% | 1014.6 hPa | 0 mm | - | - | - |
| 1777385044 | 21.11° C | 68% | 1014.9 hPa | 0 mm | - | - | - |
| 1777384412 | 21.11° C | 68% | 1014.9 hPa | 0 mm | - | - | - |
| 1777383210 | 20.56° C | 70% | 1015.2 hPa | 0 mm | - | - | - |
| 1777368416 | 19.44° C | 74% | 1015.9 hPa | 0 mm | - | - | - |
* Rain latest hour (hover to see other rain measurements)
** Current wind speed in m/s (hover to see current wind gust speed)